Marquette Legends — WDF9484 — position and weather

sailwx.info

Track history (hours):
 
Tides and Currents Weather Stations Pressure Air Temp Water Temp Dewpoint Dewpoint Depression Visibility Wind Speed Wind Dir Waves Ship Positions

Marquette Legends

Owner: Marquette Transportation Co. LLC, Paducah, KY. More information available from US FCC via Universal Licensing System and Coast Guard Vessel Documentation Center.

Last reported at 2018-May-20 00:33 UTC. Time now 2018-May-22 17:49 UTC.
Position N 32°45' W 091°09'.

Length 57 m; draft 3.2 m.

Type: Towing. MMSI: 367505630.

Date/timePositionNaut miles runAvg speedWind from/ knotsBaromVisibWave heightAir tempDewpointWater temp
2018-May-20 00:33N 32°45' W 091°09'6 2.3
2018-May-19 22:07N 32°40' W 091°08'0 3.8
2018-May-19 22:00N 32°40' W 091°08'3 4.8
2018-May-19 21:26N 32°37' W 091°09'2 5.1
2018-May-19 21:00N 32°35' W 091°07'2 4.6
2018-May-19 20:30N 32°33' W 091°06'3 4.5
2018-May-19 19:52N 32°30' W 091°07'2 4.8
2018-May-19 19:30N 32°29' W 091°07'2 4.6
2018-May-19 19:00N 32°27' W 091°05'2 4.8
2018-May-19 18:30N 32°26' W 091°02'3 5.1
2018-May-19 18:00N 32°25' W 090°60'2 3.3
2018-May-19 17:30N 32°23' W 090°60'2 3.9
2018-May-19 17:00N 32°21' W 090°60'2 4.9
2018-May-19 16:30N 32°21' W 090°57'2 4.4
2018-May-19 16:00N 32°20' W 090°55'2 3.4
2018-May-19 15:30N 32°18' W 090°55'2 4.4
2018-May-19 15:00N 32°17' W 090°57'2 4.1
2018-May-19 14:30N 32°15' W 090°58'2 4.8
2018-May-19 14:00N 32°13' W 090°59'2 4.7
2018-May-19 13:30N 32°11' W 090°60'2 4.5
2018-May-19 12:59N 32°09' W 091°00'2 4.1
2018-May-19 12:30N 32°07' W 091°02'3 4.8
2018-May-19 11:54N 32°08' W 091°05'1 3.8
2018-May-19 11:30N 32°07' W 091°07'3 5.0
2018-May-19 10:56N 32°05' W 091°04'2 4.4
2018-May-19 10:30N 32°03' W 091°04'3 5.2
2018-May-19 09:59N 32°01' W 091°05'3 4.8
2018-May-19 09:20N 31°59' W 091°08'2 5.0
2018-May-19 09:00N 31°59' W 091°10'2 4.0
2018-May-19 08:30N 31°57' W 091°11'6 4.8
2018-May-19 07:13N 31°52' W 091°15'3 4.8
2018-May-19 06:32N 31°51' W 091°19'106 2.5
2018-May-17 12:00N 30°07' W 091°00'0 0.0
2018-May-17 11:30N 30°07' W 091°00'0 0.0
2018-May-17 10:24N 30°07' W 091°00'0 0.0
2018-May-17 07:07N 30°07' W 091°00'0 0.0
2018-May-17 06:50N 30°07' W 091°00'34 0.8
2018-May-15 13:23N 29°56' W 090°22'29 1.0
2018-May-14 08:08N 30°05' W 090°55'113 3.0
2018-May-12 18:25N 31°57' W 091°11'6 8.9
2018-May-12 17:48N 31°60' W 091°06'410.4
2018-May-12 17:27N 32°03' W 091°03'4 9.3
2018-May-12 17:00N 32°06' W 091°06'3 6.4
2018-May-12 16:30N 32°07' W 091°02'4 8.6
2018-May-12 16:00N 32°11' W 090°60'5 9.9
2018-May-12 15:30N 32°16' W 090°58'510.1
2018-May-12 15:00N 32°19' W 090°54'4 7.3
2018-May-12 14:30N 32°21' W 090°58'4 7.3
2018-May-12 14:00N 32°24' W 090°59'5 9.5
2018-May-12 13:30N 32°27' W 091°04'4 8.8
2018-May-12 13:00N 32°31' W 091°07'4 8.9
2018-May-12 12:30N 32°35' W 091°08'4 8.8
2018-May-12 12:00N 32°39' W 091°09'6 7.4
2018-May-12 11:12N 32°44' W 091°04'4 9.3
2018-May-12 10:48N 32°44' W 091°09'3 9.0
2018-May-12 10:28N 32°47' W 091°09'  
Track history (hours):
 
Tides and Currents Weather Stations Pressure Air Temp Water Temp Dewpoint Dewpoint Depression Visibility Wind Speed Wind Dir Waves Ship Positions

Marquette Legends

Owner: Marquette Transportation Co. LLC, Paducah, KY. More information available from US FCC via Universal Licensing System and Coast Guard Vessel Documentation Center.

Last reported at 2018-May-20 00:33 UTC. Time now 2018-May-22 17:49 UTC.
Position N 32°45' W 091°09'.

Length 57 m; draft 3.2 m.

Type: Towing. MMSI: 367505630.

Date/timePositionNaut miles runAvg speedWind from/ knotsBaromVisibWave heightAir tempDewpointWater temp
2018-May-20 00:33N 32°45' W 091°09'6 2.3
2018-May-19 22:07N 32°40' W 091°08'0 3.8
2018-May-19 22:00N 32°40' W 091°08'3 4.8
2018-May-19 21:26N 32°37' W 091°09'2 5.1
2018-May-19 21:00N 32°35' W 091°07'2 4.6
2018-May-19 20:30N 32°33' W 091°06'3 4.5
2018-May-19 19:52N 32°30' W 091°07'2 4.8
2018-May-19 19:30N 32°29' W 091°07'2 4.6
2018-May-19 19:00N 32°27' W 091°05'2 4.8
2018-May-19 18:30N 32°26' W 091°02'3 5.1
2018-May-19 18:00N 32°25' W 090°60'2 3.3
2018-May-19 17:30N 32°23' W 090°60'2 3.9
2018-May-19 17:00N 32°21' W 090°60'2 4.9
2018-May-19 16:30N 32°21' W 090°57'2 4.4
2018-May-19 16:00N 32°20' W 090°55'2 3.4
2018-May-19 15:30N 32°18' W 090°55'2 4.4
2018-May-19 15:00N 32°17' W 090°57'2 4.1
2018-May-19 14:30N 32°15' W 090°58'2 4.8
2018-May-19 14:00N 32°13' W 090°59'2 4.7
2018-May-19 13:30N 32°11' W 090°60'2 4.5
2018-May-19 12:59N 32°09' W 091°00'2 4.1
2018-May-19 12:30N 32°07' W 091°02'3 4.8
2018-May-19 11:54N 32°08' W 091°05'1 3.8
2018-May-19 11:30N 32°07' W 091°07'3 5.0
2018-May-19 10:56N 32°05' W 091°04'2 4.4
2018-May-19 10:30N 32°03' W 091°04'3 5.2
2018-May-19 09:59N 32°01' W 091°05'3 4.8
2018-May-19 09:20N 31°59' W 091°08'2 5.0
2018-May-19 09:00N 31°59' W 091°10'2 4.0
2018-May-19 08:30N 31°57' W 091°11'6 4.8
2018-May-19 07:13N 31°52' W 091°15'3 4.8
2018-May-19 06:32N 31°51' W 091°19'106 2.5
2018-May-17 12:00N 30°07' W 091°00'0 0.0
2018-May-17 11:30N 30°07' W 091°00'0 0.0
2018-May-17 10:24N 30°07' W 091°00'0 0.0
2018-May-17 07:07N 30°07' W 091°00'0 0.0
2018-May-17 06:50N 30°07' W 091°00'34 0.8
2018-May-15 13:23N 29°56' W 090°22'29 1.0
2018-May-14 08:08N 30°05' W 090°55'113 3.0
2018-May-12 18:25N 31°57' W 091°11'6 8.9
2018-May-12 17:48N 31°60' W 091°06'410.4
2018-May-12 17:27N 32°03' W 091°03'4 9.3
2018-May-12 17:00N 32°06' W 091°06'3 6.4
2018-May-12 16:30N 32°07' W 091°02'4 8.6
2018-May-12 16:00N 32°11' W 090°60'5 9.9
2018-May-12 15:30N 32°16' W 090°58'510.1
2018-May-12 15:00N 32°19' W 090°54'4 7.3
2018-May-12 14:30N 32°21' W 090°58'4 7.3
2018-May-12 14:00N 32°24' W 090°59'5 9.5
2018-May-12 13:30N 32°27' W 091°04'4 8.8
2018-May-12 13:00N 32°31' W 091°07'4 8.9
2018-May-12 12:30N 32°35' W 091°08'4 8.8
2018-May-12 12:00N 32°39' W 091°09'6 7.4
2018-May-12 11:12N 32°44' W 091°04'4 9.3
2018-May-12 10:48N 32°44' W 091°09'3 9.0
2018-May-12 10:28N 32°47' W 091°09'  

Dump ship's entire track history